Time;durP1;ratioP1;P1;durP2;ratioP2;P2;SDS_P1;SDS_P2;PMS_P1;PMS_P2;Temp;Humidity;BMP_temperature;BMP_pressure;BME280_temperature;BME280_humidity;BME280_pressure;Samples;Min_cycle;Max_cycle;Signal;HPM_P1;HPM_P2
2024/02/14 00:01:50;;;;;;;;;;;;;;;8.89;72.70;98421.41;5070614;28;19965;-78
2024/02/14 00:04:15;;;;;;;;;;;;;;;8.92;71.69;98421.28;5072050;28;20004;-78
2024/02/14 00:06:41;;;;;;;;;;;;;;;8.85;72.49;98415.97;5080863;28;20427;-77
2024/02/14 00:09:06;;;;;;;;;;;;;;;8.88;72.54;98422.59;5069620;28;19927;-78
2024/02/14 00:11:32;;;;;;;;;;;;;;;8.82;71.61;98430.59;5071477;28;20387;-78
2024/02/14 00:13:58;;;;;;;;;;;;;;;8.89;72.58;98426.91;5069565;28;20334;-78
2024/02/14 00:16:24;;;;;;;;;;;;;;;8.89;71.94;98427.69;5069970;28;20315;-79
2024/02/14 00:18:49;;;;;;;;;;;;;;;8.90;71.62;98432.00;5069798;28;19913;-79
2024/02/14 00:21:14;;;;;;;;;;;;;;;8.91;71.14;98441.03;5069750;28;19958;-78
2024/02/14 00:23:40;;;;;;;;;;;;;;;8.90;71.66;98451.28;5069473;28;19928;-79
2024/02/14 00:26:05;;;;;;;;;;;;;;;8.89;70.73;98449.72;5069882;28;19919;-78
2024/02/14 00:28:30;;;;;;;;;;;;;;;8.92;70.75;98448.09;5069995;28;20410;-78
2024/02/14 00:30:55;;;;;;;;;;;;;;;8.85;70.83;98457.31;5071925;28;19966;-77
2024/02/14 00:33:21;;;;;;;;;;;;;;;8.86;71.31;98450.56;5084972;28;19943;-79
2024/02/14 00:35:47;;;;;;;;;;;;;;;8.86;69.84;98460.84;5095621;28;19903;-79
2024/02/14 00:38:12;;;;;;;;;;;;;;;8.88;69.97;98461.16;5096059;28;19901;-79
2024/02/14 00:40:37;;;;;;;;;;;;;;;8.88;69.62;98459.19;5096223;28;19916;-78
2024/02/14 00:43:03;;;;;;;;;;;;;;;8.87;69.67;98448.59;5096082;28;19951;-77
2024/02/14 00:45:28;;;;;;;;;;;;;;;8.89;70.41;98457.97;5081173;28;20403;-79
2024/02/14 00:47:53;;;;;;;;;;;;;;;8.81;69.96;98458.56;5069426;28;19951;-79
2024/02/14 00:50:18;;;;;;;;;;;;;;;8.87;69.56;98456.84;5069548;28;19916;-79
2024/02/14 00:52:44;;;;;;;;;;;;;;;8.85;69.28;98462.03;5070580;28;20392;-79
2024/02/14 00:55:09;;;;;;;;;;;;;;;8.83;69.84;98459.72;5070745;28;19916;-79
2024/02/14 00:57:34;;;;;;;;;;;;;;;8.83;70.41;98461.69;5069541;28;19956;-78
2024/02/14 01:00:00;;;;;;;;;;;;;;;8.84;70.18;98464.00;5069375;28;19939;-79
2024/02/14 01:02:26;;;;;;;;;;;;;;;8.80;70.80;98457.78;5070746;28;19912;-78
2024/02/14 01:04:51;;;;;;;;;;;;;;;8.78;71.54;98465.75;5071106;28;20327;-79
2024/02/14 01:07:16;;;;;;;;;;;;;;;8.76;70.65;98459.88;5068785;28;19935;-78
2024/02/14 01:09:42;;;;;;;;;;;;;;;8.71;71.59;98462.38;5070013;28;19913;-79
2024/02/14 01:12:07;;;;;;;;;;;;;;;8.68;71.25;98455.72;5069707;28;19991;-79
2024/02/14 01:14:33;;;;;;;;;;;;;;;8.70;70.95;98453.31;5069690;28;19913;-78
2024/02/14 01:16:58;;;;;;;;;;;;;;;8.63;72.12;98456.25;5069476;28;20352;-78
2024/02/14 01:19:28;;;;;;;;;;;;;;;8.67;71.94;98459.72;5069362;28;20363;-78
2024/02/14 01:21:54;;;;;;;;;;;;;;;8.59;72.46;98455.56;5068905;28;19912;-78
2024/02/14 01:24:19;;;;;;;;;;;;;;;8.55;72.85;98452.13;5069142;28;19919;-78
2024/02/14 01:26:44;;;;;;;;;;;;;;;8.55;71.50;98458.41;5069486;28;19913;-77
2024/02/14 01:29:10;;;;;;;;;;;;;;;8.58;71.76;98454.00;5053754;28;19966;-78
2024/02/14 01:31:35;;;;;;;;;;;;;;;8.61;70.83;98449.63;5053791;28;19963;-79
2024/02/14 01:34:01;;;;;;;;;;;;;;;8.68;70.29;98449.47;5053748;28;19913;-78
2024/02/14 01:36:27;;;;;;;;;;;;;;;8.70;69.52;98447.81;5053391;28;20316;-79
2024/02/14 01:38:52;;;;;;;;;;;;;;;8.68;68.45;98436.44;5069292;28;19912;-77
2024/02/14 01:41:19;;;;;;;;;;;;;;;8.82;68.33;98438.09;5069188;28;19979;-79
2024/02/14 01:43:44;;;;;;;;;;;;;;;8.74;68.83;98445.75;5069091;28;19986;-78
2024/02/14 01:46:10;;;;;;;;;;;;;;;8.79;67.94;98444.47;5069003;28;20373;-78
2024/02/14 01:48:36;;;;;;;;;;;;;;;8.78;69.06;98445.69;5069009;28;19970;-76
2024/02/14 01:51:02;;;;;;;;;;;;;;;8.78;67.92;98454.72;5068871;28;20023;-77
2024/02/14 01:53:30;;;;;;;;;;;;;;;8.79;67.31;98455.50;5069311;28;20455;-78
2024/02/14 01:55:55;;;;;;;;;;;;;;;8.85;67.16;98456.53;5068848;28;20003;-77
2024/02/14 01:58:20;;;;;;;;;;;;;;;8.84;67.08;98463.25;5068826;28;20019;-77
2024/02/14 02:00:46;;;;;;;;;;;;;;;8.82;66.87;98465.63;5068482;28;19921;-79
2024/02/14 02:03:11;;;;;;;;;;;;;;;8.85;67.13;98471.09;5053257;28;19916;-77
2024/02/14 02:05:37;;;;;;;;;;;;;;;8.82;68.13;98460.91;5068729;28;19970;-78
2024/02/14 02:08:02;;;;;;;;;;;;;;;8.78;67.21;98474.00;5051717;28;19925;-78
2024/02/14 02:10:29;;;;;;;;;;;;;;;8.81;66.91;98467.63;5053965;28;19913;-78
2024/02/14 02:13:00;;;;;;;;;;;;;;;8.83;65.99;98467.97;5040286;28;19919;-78
2024/02/14 02:15:26;;;;;;;;;;;;;;;8.90;65.89;98459.53;5067864;28;20030;-78
2024/02/14 02:17:53;;;;;;;;;;;;;;;8.88;66.38;98463.91;5051397;28;20380;-77
2024/02/14 02:20:18;;;;;;;;;;;;;;;8.88;65.36;98463.91;5068349;28;19912;-79
2024/02/14 02:22:50;;;;;;;;;;;;;;;8.90;65.89;98461.50;5068664;28;19929;-79
2024/02/14 02:25:15;;;;;;;;;;;;;;;8.92;65.56;98468.13;5068600;28;20376;-78
2024/02/14 02:27:40;;;;;;;;;;;;;;;8.91;66.39;98477.63;5068439;28;19920;-78
2024/02/14 02:30:06;;;;;;;;;;;;;;;8.85;65.68;98479.34;5052675;28;19939;-78
2024/02/14 02:32:31;;;;;;;;;;;;;;;8.90;65.30;98483.56;5068434;28;20487;-79
2024/02/14 02:34:57;;;;;;;;;;;;;;;8.86;65.75;98489.13;5068015;28;19917;-79
2024/02/14 02:37:23;;;;;;;;;;;;;;;8.88;65.05;98480.44;5067804;28;19920;-79
2024/02/14 02:39:48;;;;;;;;;;;;;;;8.89;65.04;98482.78;5052745;28;20304;-79
2024/02/14 02:42:14;;;;;;;;;;;;;;;8.92;64.77;98487.41;5052452;28;19912;-78
2024/02/14 02:44:39;;;;;;;;;;;;;;;8.94;64.53;98498.78;5052381;28;20384;-79
2024/02/14 02:47:04;;;;;;;;;;;;;;;8.90;64.50;98489.84;5067895;28;20425;-79
2024/02/14 02:49:30;;;;;;;;;;;;;;;8.92;64.82;98492.94;5067780;28;19909;-78
2024/02/14 02:51:55;;;;;;;;;;;;;;;8.92;64.92;98503.19;5052382;28;20471;-78
2024/02/14 02:54:23;;;;;;;;;;;;;;;8.92;65.18;98505.94;5067882;28;19932;-78
2024/02/14 02:56:48;;;;;;;;;;;;;;;8.92;65.88;98501.19;5052404;28;19971;-79
2024/02/14 02:59:16;;;;;;;;;;;;;;;8.88;65.55;98511.53;5052150;28;19960;-79
2024/02/14 03:01:42;;;;;;;;;;;;;;;8.82;66.52;98506.97;5067912;28;20404;-78
2024/02/14 03:04:08;;;;;;;;;;;;;;;8.79;64.97;98514.13;5067379;28;19913;-78
2024/02/14 03:06:33;;;;;;;;;;;;;;;8.82;65.51;98518.75;5067618;28;19928;-79
2024/02/14 03:08:58;;;;;;;;;;;;;;;8.87;64.33;98506.44;5069491;28;19945;-79
2024/02/14 03:11:26;;;;;;;;;;;;;;;8.88;64.45;98500.50;5072078;28;19951;-77
2024/02/14 03:13:52;;;;;;;;;;;;;;;8.91;65.17;98501.66;5070644;28;19938;-79
2024/02/14 03:16:17;;;;;;;;;;;;;;;8.86;65.40;98497.41;5071888;28;19979;-79
2024/02/14 03:18:43;;;;;;;;;;;;;;;8.83;66.00;98509.28;5070343;28;20427;-79
2024/02/14 03:21:08;;;;;;;;;;;;;;;8.78;65.36;98512.56;5070904;28;20400;-78
2024/02/14 03:23:33;;;;;;;;;;;;;;;8.76;65.70;98501.19;5070487;28;19912;-78
2024/02/14 03:25:58;;;;;;;;;;;;;;;8.81;65.73;98500.66;5070784;28;19912;-78
2024/02/14 03:28:24;;;;;;;;;;;;;;;8.81;66.02;98506.19;5070016;28;19999;-78
2024/02/14 03:30:50;;;;;;;;;;;;;;;8.73;66.30;98502.06;5070435;28;20361;-80
2024/02/14 03:33:15;;;;;;;;;;;;;;;8.73;65.40;98506.78;5071528;28;20331;-78
2024/02/14 03:35:41;;;;;;;;;;;;;;;8.75;65.63;98515.38;5071882;28;19916;-79
2024/02/14 03:38:08;;;;;;;;;;;;;;;8.71;66.73;98520.22;5070300;28;19924;-78
2024/02/14 03:40:34;;;;;;;;;;;;;;;8.68;65.92;98516.31;5071517;28;19991;-78
2024/02/14 03:42:59;;;;;;;;;;;;;;;8.72;66.32;98530.81;5071376;28;20008;-79
2024/02/14 03:45:24;;;;;;;;;;;;;;;8.68;65.53;98527.34;5070143;28;19909;-78
2024/02/14 03:47:49;;;;;;;;;;;;;;;8.72;65.62;98533.56;5071543;28;20333;-79
2024/02/14 03:50:15;;;;;;;;;;;;;;;8.67;66.00;98528.56;5070322;28;19912;-78
2024/02/14 03:52:42;;;;;;;;;;;;;;;8.65;66.27;98535.69;5071456;28;20411;-78
2024/02/14 03:55:08;;;;;;;;;;;;;;;8.64;67.31;98548.69;5071402;28;19908;-78
2024/02/14 03:57:38;;;;;;;;;;;;;;;8.63;67.05;98547.13;5071411;28;19916;-79
2024/02/14 04:00:04;;;;;;;;;;;;;;;8.67;65.92;98547.06;5070007;28;20003;-78
2024/02/14 04:02:31;;;;;;;;;;;;;;;8.64;66.16;98550.66;5070396;28;19917;-78
2024/02/14 04:04:56;;;;;;;;;;;;;;;8.72;65.58;98566.59;5071476;28;19923;-79
2024/02/14 04:07:22;;;;;;;;;;;;;;;8.70;66.43;98570.97;5069658;28;19920;-77
2024/02/14 04:09:47;;;;;;;;;;;;;;;8.70;65.15;98577.28;5069993;28;20394;-78
2024/02/14 04:12:13;;;;;;;;;;;;;;;8.72;64.74;98577.63;5071256;28;20532;-78
2024/02/14 04:14:38;;;;;;;;;;;;;;;8.71;63.89;98570.56;5071262;28;19978;-77
2024/02/14 04:17:04;;;;;;;;;;;;;;;8.82;64.31;98584.88;5069810;28;20372;-77
2024/02/14 04:19:29;;;;;;;;;;;;;;;8.84;64.11;98585.22;5070187;28;19912;-77
2024/02/14 04:21:55;;;;;;;;;;;;;;;8.83;63.85;98586.44;5071018;28;19908;-77
2024/02/14 04:24:20;;;;;;;;;;;;;;;8.83;64.13;98589.19;5071400;28;19962;-77
2024/02/14 04:26:48;;;;;;;;;;;;;;;8.78;64.15;98591.66;5069632;28;20438;-76
2024/02/14 04:29:13;;;;;;;;;;;;;;;8.76;64.29;98594.06;5069842;28;19917;-79
2024/02/14 04:31:38;;;;;;;;;;;;;;;8.74;64.10;98590.97;5070931;28;19973;-76
2024/02/14 04:34:05;;;;;;;;;;;;;;;8.81;64.48;98596.31;5071154;28;19919;-78
2024/02/14 04:36:30;;;;;;;;;;;;;;;8.80;64.44;98595.53;5053217;28;19912;-78
2024/02/14 04:38:57;;;;;;;;;;;;;;;8.77;63.97;98601.13;5071122;28;19917;-79
2024/02/14 04:41:23;;;;;;;;;;;;;;;8.75;64.21;98598.78;5074751;28;19916;-77
2024/02/14 04:43:48;;;;;;;;;;;;;;;8.78;63.10;98597.97;5074817;28;19920;-78
2024/02/14 04:46:13;;;;;;;;;;;;;;;8.80;63.15;98600.28;5074457;28;19912;-78
2024/02/14 04:48:39;;;;;;;;;;;;;;;8.78;63.02;98594.41;5073643;28;20353;-77
2024/02/14 04:51:04;;;;;;;;;;;;;;;8.77;62.98;98599.16;5073194;28;19922;-77
2024/02/14 04:53:30;;;;;;;;;;;;;;;8.77;63.08;98603.88;5073077;28;19962;-78
2024/02/14 04:55:55;;;;;;;;;;;;;;;8.77;62.64;98610.19;5074243;28;19947;-78
2024/02/14 04:58:21;;;;;;;;;;;;;;;8.83;62.28;98615.94;5074589;28;19909;-77
2024/02/14 05:00:46;;;;;;;;;;;;;;;8.81;61.30;98610.88;5073102;28;19939;-78
2024/02/14 05:03:12;;;;;;;;;;;;;;;8.82;62.56;98617.94;5074286;28;19912;-79
2024/02/14 05:05:37;;;;;;;;;;;;;;;8.80;62.72;98622.31;5073216;28;20387;-78
2024/02/14 05:08:03;;;;;;;;;;;;;;;8.76;62.10;98627.91;5072799;28;20008;-79
2024/02/14 05:10:28;;;;;;;;;;;;;;;8.77;62.60;98643.22;5073189;28;20372;-77
2024/02/14 05:12:54;;;;;;;;;;;;;;;8.77;62.42;98632.22;5074265;28;19927;-78
2024/02/14 05:15:19;;;;;;;;;;;;;;;8.78;62.21;98638.50;5072748;28;19920;-79
2024/02/14 05:17:45;;;;;;;;;;;;;;;8.78;62.40;98642.03;5074306;28;19916;-77
2024/02/14 05:20:11;;;;;;;;;;;;;;;8.71;62.97;98635.88;5074246;28;19912;-80
2024/02/14 05:22:37;;;;;;;;;;;;;;;8.71;62.26;98644.94;5073008;28;19916;-76
2024/02/14 05:25:04;;;;;;;;;;;;;;;8.78;62.93;98653.06;5074031;28;19997;-77
2024/02/14 05:27:29;;;;;;;;;;;;;;;8.75;63.04;98667.66;5072863;28;20003;-79
2024/02/14 05:29:54;;;;;;;;;;;;;;;8.67;63.33;98660.75;5072426;28;20502;-79
2024/02/14 05:32:19;;;;;;;;;;;;;;;8.69;61.79;98655.59;5074144;28;20409;-78
2024/02/14 05:34:45;;;;;;;;;;;;;;;8.71;62.00;98668.94;5072827;28;19912;-79
2024/02/14 05:37:10;;;;;;;;;;;;;;;8.72;62.21;98674.03;5072622;28;19912;-78
2024/02/14 05:39:35;;;;;;;;;;;;;;;8.71;62.80;98671.69;5072237;28;19922;-78
2024/02/14 05:42:01;;;;;;;;;;;;;;;8.67;63.48;98674.53;5072332;28;19912;-78
2024/02/14 05:44:27;;;;;;;;;;;;;;;8.69;62.20;98683.13;5073545;28;19920;-79
2024/02/14 05:46:52;;;;;;;;;;;;;;;8.65;63.13;98685.19;5072511;28;19924;-79
2024/02/14 05:49:18;;;;;;;;;;;;;;;8.63;61.88;98679.31;5073702;28;19916;-77
2024/02/14 05:51:43;;;;;;;;;;;;;;;8.73;62.03;98685.81;5055922;28;19912;-80
2024/02/14 05:54:08;;;;;;;;;;;;;;;8.71;62.44;98689.00;5071731;28;19920;-77
2024/02/14 05:56:33;;;;;;;;;;;;;;;8.68;62.20;98692.59;5073309;28;19974;-79
2024/02/14 05:58:59;;;;;;;;;;;;;;;8.65;62.05;98693.44;5072496;28;19913;-77
2024/02/14 06:01:24;;;;;;;;;;;;;;;8.64;62.25;98697.41;5072584;28;20368;-78
2024/02/14 06:03:49;;;;;;;;;;;;;;;8.64;61.11;98697.41;5072385;28;19962;-78
2024/02/14 06:06:14;;;;;;;;;;;;;;;8.68;61.95;98702.84;5072043;28;19966;-80
2024/02/14 06:08:40;;;;;;;;;;;;;;;8.64;62.33;98697.41;5069615;28;19916;-80
2024/02/14 06:11:05;;;;;;;;;;;;;;;8.63;61.69;98704.09;5070354;28;19921;-78
2024/02/14 06:13:30;;;;;;;;;;;;;;;8.58;62.15;98704.59;5055103;28;19920;-78
2024/02/14 06:15:56;;;;;;;;;;;;;;;8.59;61.95;98703.41;5071923;28;20372;-78
2024/02/14 06:18:21;;;;;;;;;;;;;;;8.53;62.83;98713.34;5073017;28;19963;-79
2024/02/14 06:20:46;;;;;;;;;;;;;;;8.54;63.00;98709.41;5071795;28;19916;-78
2024/02/14 06:23:12;;;;;;;;;;;;;;;8.51;63.07;98701.97;5071539;28;19966;-76
2024/02/14 06:25:37;;;;;;;;;;;;;;;8.51;62.89;98718.50;5073034;28;20437;-77
2024/02/14 06:28:02;;;;;;;;;;;;;;;8.54;62.71;98714.91;5071394;28;19918;-78
2024/02/14 06:30:28;;;;;;;;;;;;;;;8.57;63.30;98728.59;5054414;28;19919;-79
2024/02/14 06:32:53;;;;;;;;;;;;;;;8.56;64.22;98734.53;5071135;28;20017;-77
2024/02/14 06:35:20;;;;;;;;;;;;;;;8.53;63.61;98736.16;5071187;28;20425;-79
2024/02/14 06:37:46;;;;;;;;;;;;;;;8.50;64.36;98734.22;5071998;28;19942;-77
2024/02/14 06:40:11;;;;;;;;;;;;;;;8.43;64.25;98737.16;5070405;28;20292;-78
2024/02/14 06:42:37;;;;;;;;;;;;;;;8.47;63.63;98737.06;5071169;28;19916;-78
2024/02/14 06:45:03;;;;;;;;;;;;;;;8.43;64.94;98737.16;5071136;28;19965;-78
2024/02/14 06:47:29;;;;;;;;;;;;;;;8.41;64.22;98749.75;5054050;28;19948;-78
2024/02/14 06:49:55;;;;;;;;;;;;;;;8.38;64.30;98751.38;5071046;28;20499;-77
2024/02/14 06:52:20;;;;;;;;;;;;;;;8.37;65.10;98754.56;5053225;28;19917;-78
2024/02/14 06:54:46;;;;;;;;;;;;;;;8.34;64.68;98758.13;5042328;28;19916;-79
2024/02/14 06:57:11;;;;;;;;;;;;;;;8.36;64.45;98758.50;5072234;28;20287;-78
2024/02/14 06:59:37;;;;;;;;;;;;;;;8.39;64.55;98760.41;5071908;28;19966;-78
2024/02/14 07:02:03;;;;;;;;;;;;;;;8.41;63.69;98760.78;5071670;28;19908;-78
2024/02/14 07:04:28;;;;;;;;;;;;;;;8.42;64.32;98767.84;5072029;28;19995;-77
2024/02/14 07:06:53;;;;;;;;;;;;;;;8.40;63.98;98764.72;5070307;28;19918;-78
2024/02/14 07:09:19;;;;;;;;;;;;;;;8.38;63.95;98767.88;5069893;28;20437;-78
2024/02/14 07:11:45;;;;;;;;;;;;;;;8.39;63.58;98777.72;5069840;28;19950;-77
2024/02/14 07:14:11;;;;;;;;;;;;;;;8.43;62.76;98775.69;5070867;28;19917;-78
2024/02/14 07:16:36;;;;;;;;;;;;;;;8.49;63.98;98782.25;5071004;28;19924;-78
2024/02/14 07:19:02;;;;;;;;;;;;;;;8.46;65.27;98777.59;5070109;28;19912;-78
2024/02/14 07:21:27;;;;;;;;;;;;;;;8.46;64.74;98769.31;5069891;28;19916;-79
2024/02/14 07:23:53;;;;;;;;;;;;;;;8.48;64.95;98768.91;5071073;28;19951;-79
2024/02/14 07:26:18;;;;;;;;;;;;;;;8.52;63.63;98788.91;5070751;28;20281;-79
2024/02/14 07:28:44;;;;;;;;;;;;;;;8.56;63.23;98789.59;5070832;28;19923;-78
2024/02/14 07:31:09;;;;;;;;;;;;;;;8.51;63.12;98795.59;5070496;28;19917;-77
2024/02/14 07:33:35;;;;;;;;;;;;;;;8.51;62.76;98798.34;5067833;28;19912;-78
2024/02/14 07:36:00;;;;;;;;;;;;;;;8.53;64.48;98807.75;5068479;28;19908;-78
2024/02/14 07:38:25;;;;;;;;;;;;;;;8.52;62.95;98797.94;5068855;28;19908;-76
2024/02/14 07:40:51;;;;;;;;;;;;;;;8.54;63.27;98816.78;5070637;28;20000;-78
2024/02/14 07:43:17;;;;;;;;;;;;;;;8.55;63.93;98812.84;5068952;28;19916;-78
2024/02/14 07:45:42;;;;;;;;;;;;;;;8.54;63.18;98820.34;5069228;28;19971;-78
2024/02/14 07:48:08;;;;;;;;;;;;;;;8.52;62.93;98821.94;5069077;28;20307;-78
2024/02/14 07:50:33;;;;;;;;;;;;;;;8.52;63.15;98822.72;5070431;28;20380;-78
2024/02/14 07:52:58;;;;;;;;;;;;;;;8.50;63.54;98816.84;5070187;28;19917;-79
2024/02/14 07:55:24;;;;;;;;;;;;;;;8.52;63.47;98819.19;5070136;28;20381;-79
2024/02/14 07:57:49;;;;;;;;;;;;;;;8.55;63.13;98832.91;5068830;28;19920;-79
2024/02/14 08:00:22;;;;;;;;;;;;;;;8.60;63.16;98831.63;5069177;28;19908;-78
2024/02/14 08:02:47;;;;;;;;;;;;;;;8.68;63.34;98835.81;5070225;28;20303;-79
2024/02/14 08:05:12;;;;;;;;;;;;;;;8.66;63.15;98823.69;5052091;28;20383;-78
2024/02/14 08:07:38;;;;;;;;;;;;;;;8.66;62.34;98835.47;5028181;28;1206247;-79
2024/02/14 08:10:04;;;;;;;;;;;;;;;8.65;63.01;98836.66;5069846;28;19916;-79
2024/02/14 08:12:30;;;;;;;;;;;;;;;8.61;63.54;98841.47;5069807;28;19935;-77
2024/02/14 08:14:55;;;;;;;;;;;;;;;8.64;63.73;98845.34;5071571;28;20376;-78
2024/02/14 08:17:21;;;;;;;;;;;;;;;8.68;64.02;98846.81;5074994;28;19982;-78
2024/02/14 08:19:46;;;;;;;;;;;;;;;8.69;63.30;98862.16;5073825;28;19912;-80
2024/02/14 08:22:12;;;;;;;;;;;;;;;8.66;62.17;98854.75;5074801;28;19914;-77
2024/02/14 08:24:37;;;;;;;;;;;;;;;8.67;63.60;98861.81;5073826;28;19908;-78
2024/02/14 08:27:06;;;;;;;;;;;;;;;8.65;63.76;98866.19;5073501;28;20437;-78
2024/02/14 08:29:31;;;;;;;;;;;;;;;8.63;62.77;98865.81;5073729;28;19912;-79
2024/02/14 08:31:56;;;;;;;;;;;;;;;8.68;62.33;98871.63;5074755;28;19919;-78
2024/02/14 08:34:22;;;;;;;;;;;;;;;8.68;62.37;98868.88;5073687;28;20346;-79
2024/02/14 08:36:47;;;;;;;;;;;;;;;8.73;62.31;98870.38;5074333;28;20396;-78
2024/02/14 08:39:13;;;;;;;;;;;;;;;8.75;62.21;98874.25;5074605;28;20353;-78
2024/02/14 08:41:38;;;;;;;;;;;;;;;8.80;61.76;98881.28;5074284;28;19909;-78
2024/02/14 08:44:07;;;;;;;;;;;;;;;8.77;61.02;98871.09;5073436;28;20461;-78
2024/02/14 08:46:33;;;;;;;;;;;;;;;8.76;60.96;98880.53;5074586;28;19909;-78
2024/02/14 08:49:01;;;;;;;;;;;;;;;8.68;61.34;98879.88;5074676;28;20354;-79
2024/02/14 08:51:27;;;;;;;;;;;;;;;8.71;61.54;98884.56;5073146;28;20384;-79
2024/02/14 08:53:55;;;;;;;;;;;;;;;8.72;61.92;98880.63;5073187;28;19909;-78
2024/02/14 08:56:21;;;;;;;;;;;;;;;8.72;62.32;98882.59;5072949;28;20058;-77
2024/02/14 08:58:47;;;;;;;;;;;;;;;8.62;61.80;98898.06;5073164;28;20292;-79
2024/02/14 09:01:12;;;;;;;;;;;;;;;8.64;62.39;98892.94;5072734;28;19966;-78
2024/02/14 09:03:38;;;;;;;;;;;;;;;8.60;62.55;98889.47;5074225;28;19908;-78
2024/02/14 09:06:04;;;;;;;;;;;;;;;8.69;61.84;98903.47;5072632;28;19919;-78
2024/02/14 09:08:30;;;;;;;;;;;;;;;8.67;62.65;98896.84;5072473;28;19931;-78
2024/02/14 09:10:56;;;;;;;;;;;;;;;8.67;62.16;98902.34;5072754;28;19912;-79
2024/02/14 09:13:21;;;;;;;;;;;;;;;8.64;61.27;98901.19;5072474;28;19920;-79
2024/02/14 09:15:48;;;;;;;;;;;;;;;8.65;61.55;98897.25;5073867;28;19917;-78
2024/02/14 09:18:15;;;;;;;;;;;;;;;8.65;61.50;98908.28;5072335;28;20296;-77
2024/02/14 09:20:40;;;;;;;;;;;;;;;8.69;61.92;98914.50;5072551;28;19934;-77
2024/02/14 09:23:05;;;;;;;;;;;;;;;8.68;61.39;98923.94;5072537;28;19920;-78
2024/02/14 09:25:31;;;;;;;;;;;;;;;8.71;61.71;98917.63;5071853;28;19912;-78
2024/02/14 09:27:56;;;;;;;;;;;;;;;8.78;62.22;98928.53;5072615;28;20007;-79
2024/02/14 09:30:21;;;;;;;;;;;;;;;8.76;61.67;98922.66;5072114;28;19974;-77
2024/02/14 09:32:47;;;;;;;;;;;;;;;8.77;62.68;98926.97;5073681;28;19919;-78
2024/02/14 09:35:13;;;;;;;;;;;;;;;8.80;61.55;98922.59;5073427;28;20397;-77
2024/02/14 09:37:38;;;;;;;;;;;;;;;8.87;62.63;98920.50;5073396;28;19967;-78
2024/02/14 09:40:04;;;;;;;;;;;;;;;8.93;62.46;98921.56;5073220;28;19912;-78
2024/02/14 09:42:43;;;;;;;;;;;;;;;8.97;61.31;98922.31;5072790;28;19909;-79
2024/02/14 09:45:08;;;;;;;;;;;;;;;8.96;61.29;98928.22;5073272;28;19916;-77
2024/02/14 09:47:35;;;;;;;;;;;;;;;9.06;62.43;98929.22;5071996;28;19908;-79
2024/02/14 09:50:04;;;;;;;;;;;;;;;8.98;61.70;98925.84;5071610;28;20394;-79
2024/02/14 09:52:33;;;;;;;;;;;;;;;9.11;63.87;98925.97;5067227;28;20349;-79
2024/02/14 09:54:58;;;;;;;;;;;;;;;9.16;64.57;98929.03;5073077;28;19921;-78
2024/02/14 09:57:24;;;;;;;;;;;;;;;9.10;64.75;98922.44;5071565;28;20482;-78
2024/02/14 09:59:51;;;;;;;;;;;;;;;9.16;62.90;98915.25;5071793;28;20407;-78
2024/02/14 10:02:17;;;;;;;;;;;;;;;9.15;63.13;98912.94;5071659;28;19919;-79
2024/02/14 10:04:43;;;;;;;;;;;;;;;9.10;62.37;98916.19;5071553;28;19909;-78
2024/02/14 10:07:08;;;;;;;;;;;;;;;9.12;62.74;98920.06;5065494;28;19916;-78
2024/02/14 10:09:40;;;;;;;;;;;;;;;9.19;60.87;98913.63;5064262;28;19990;-78
2024/02/14 10:12:05;;;;;;;;;;;;;;;9.21;62.02;98908.50;5052576;28;19944;-79
2024/02/14 10:14:31;;;;;;;;;;;;;;;9.24;62.68;98915.91;5072973;28;19919;-79
2024/02/14 10:16:56;;;;;;;;;;;;;;;9.28;60.90;98922.16;5073046;28;19916;-78
2024/02/14 10:19:22;;;;;;;;;;;;;;;9.34;60.95;98925.97;5073172;28;19918;-79
2024/02/14 10:21:57;;;;;;;;;;;;;;;9.33;59.10;98914.16;5073057;28;19924;-78
2024/02/14 10:24:24;;;;;;;;;;;;;;;9.42;58.59;98905.31;5059545;28;19991;-78
2024/02/14 10:26:49;;;;;;;;;;;;;;;9.43;59.53;98908.84;5071601;28;19951;-79
2024/02/14 10:29:15;;;;;;;;;;;;;;;9.50;57.89;98912.25;5054679;28;20311;-78
2024/02/14 10:31:40;;;;;;;;;;;;;;;9.48;57.72;98898.09;5054928;28;19912;-78
2024/02/14 10:34:06;;;;;;;;;;;;;;;9.58;57.52;98907.38;5071180;28;20301;-78
2024/02/14 10:36:34;;;;;;;;;;;;;;;9.58;59.35;98899.13;5065553;28;19912;-78
2024/02/14 10:39:00;;;;;;;;;;;;;;;9.61;60.70;98904.56;5054387;28;19919;-79
2024/02/14 10:41:26;;;;;;;;;;;;;;;9.73;58.84;98900.38;5054827;28;19946;-77
2024/02/14 10:43:52;;;;;;;;;;;;;;;9.76;59.14;98905.81;5071449;28;19920;-77
2024/02/14 10:46:25;;;;;;;;;;;;;;;9.80;60.38;98905.75;5070460;28;19916;-79
2024/02/14 10:48:53;;;;;;;;;;;;;;;9.87;59.38;98896.53;5069873;28;19988;-77
2024/02/14 10:51:21;;;;;;;;;;;;;;;9.93;59.76;98901.13;5070929;28;19943;-78
2024/02/14 10:53:46;;;;;;;;;;;;;;;9.98;58.98;98894.31;5053297;28;19916;-81
2024/02/14 10:56:18;;;;;;;;;;;;;;;10.12;57.99;98902.31;5068936;28;19924;-81
2024/02/14 10:58:45;;;;;;;;;;;;;;;10.27;56.29;98892.50;5053219;28;19945;-79
2024/02/14 11:01:11;;;;;;;;;;;;;;;10.32;56.55;98883.72;5070906;28;19917;-79
2024/02/14 11:03:36;;;;;;;;;;;;;;;10.35;55.52;98893.91;5052097;28;19920;-78
2024/02/14 11:06:03;;;;;;;;;;;;;;;10.35;54.57;98893.91;5069153;28;19916;-78
2024/02/14 11:08:30;;;;;;;;;;;;;;;10.41;56.10;98891.41;5064870;28;19921;-78
2024/02/14 11:10:56;;;;;;;;;;;;;;;10.41;55.78;98894.94;5046456;28;19924;-78
2024/02/14 11:13:25;;;;;;;;;;;;;;;10.42;54.58;98896.50;5064709;28;20003;-77
2024/02/14 11:15:51;;;;;;;;;;;;;;;10.45;54.66;98892.88;5066700;28;19920;-78
2024/02/14 11:18:24;;;;;;;;;;;;;;;10.41;54.15;98888.66;5050784;28;20380;-78
2024/02/14 11:20:49;;;;;;;;;;;;;;;10.41;53.36;98883.91;5052015;28;19913;-78
2024/02/14 11:23:21;;;;;;;;;;;;;;;10.48;54.42;98880.97;5067472;28;19980;-79
2024/02/14 11:25:48;;;;;;;;;;;;;;;10.66;54.11;98885.28;5067470;28;20023;-81
2024/02/14 11:28:14;;;;;;;;;;;;;;;10.81;54.00;98887.25;5066103;28;19944;-79
2024/02/14 11:30:40;;;;;;;;;;;;;;;10.90;52.76;98886.66;5051780;28;20311;-78
2024/02/14 11:33:17;;;;;;;;;;;;;;;11.01;52.65;98884.38;5050693;28;19913;-78
2024/02/14 11:35:44;;;;;;;;;;;;;;;10.95;52.64;98891.66;5050676;28;19919;-77
2024/02/14 11:38:10;;;;;;;;;;;;;;;10.88;51.51;98889.06;5050266;28;20297;-79
2024/02/14 11:40:36;;;;;;;;;;;;;;;10.93;52.41;98883.00;5051840;28;19970;-78
2024/02/14 11:43:01;;;;;;;;;;;;;;;10.72;53.34;98889.09;5050775;28;19920;-79
2024/02/14 11:45:29;;;;;;;;;;;;;;;10.77;53.26;98883.03;5050785;28;19921;-79
2024/02/14 11:47:55;;;;;;;;;;;;;;;10.75;52.38;98896.50;5051636;28;19921;-79
2024/02/14 11:50:20;;;;;;;;;;;;;;;10.79;52.01;98894.44;5050531;28;20320;-78
2024/02/14 11:52:46;;;;;;;;;;;;;;;10.89;52.36;98893.38;5066969;28;19921;-77
2024/02/14 11:55:15;;;;;;;;;;;;;;;10.89;52.71;98896.16;5050397;28;19916;-80
2024/02/14 11:57:40;;;;;;;;;;;;;;;10.94;51.59;98885.34;5065418;28;19916;-77
2024/02/14 12:00:06;;;;;;;;;;;;;;;10.95;51.70;98897.19;5065891;28;19974;-79
2024/02/14 12:02:31;;;;;;;;;;;;;;;10.99;52.37;98897.84;5051640;28;19942;-78
2024/02/14 12:04:58;;;;;;;;;;;;;;;10.89;52.17;98896.16;5067668;28;19995;-79
2024/02/14 12:07:24;;;;;;;;;;;;;;;10.73;52.71;98899.69;5067027;28;19917;-78
2024/02/14 12:09:50;;;;;;;;;;;;;;;10.77;52.77;98903.16;5066861;28;19923;-77
2024/02/14 12:12:16;;;;;;;;;;;;;;;10.84;52.43;98902.22;5062724;28;19916;-79
2024/02/14 12:14:43;;;;;;;;;;;;;;;10.76;52.38;98895.28;5048109;28;19917;-78
2024/02/14 12:17:10;;;;;;;;;;;;;;;10.68;52.86;98904.97;5066616;28;19927;-79
2024/02/14 12:19:37;;;;;;;;;;;;;;;10.73;53.41;98901.69;5051271;28;20381;-79
2024/02/14 12:22:08;;;;;;;;;;;;;;;10.73;51.88;98910.00;5066639;28;19913;-79
2024/02/14 12:24:33;;;;;;;;;;;;;;;10.70;52.57;98906.09;5066668;28;20396;-79
2024/02/14 12:26:58;;;;;;;;;;;;;;;10.59;52.87;98908.34;5066490;28;19947;-78
2024/02/14 12:29:24;;;;;;;;;;;;;;;10.70;54.35;98899.78;5066763;28;20316;-78
2024/02/14 12:31:50;;;;;;;;;;;;;;;10.65;53.91;98900.31;5066380;28;19917;-78
2024/02/14 12:34:15;;;;;;;;;;;;;;;10.66;53.70;98902.66;5050146;28;19913;-79
2024/02/14 12:36:41;;;;;;;;;;;;;;;10.71;53.10;98901.34;5065892;28;19913;-78
2024/02/14 12:39:06;;;;;;;;;;;;;;;10.69;53.56;98906.50;5065968;28;20419;-79
2024/02/14 12:41:33;;;;;;;;;;;;;;;10.44;52.48;98907.09;5065846;28;20399;-79
2024/02/14 12:43:59;;;;;;;;;;;;;;;10.47;53.08;98912.56;5065999;28;19913;-79
2024/02/14 12:46:24;;;;;;;;;;;;;;;10.39;53.55;98908.41;5065911;28;19912;-79
2024/02/14 12:48:49;;;;;;;;;;;;;;;10.36;54.06;98917.56;5051101;28;19909;-78